createdAt,value
2018-07-20T00:02:17.926Z,21.34
2018-07-20T00:04:43.934Z,20.96
2018-07-20T00:07:09.920Z,20.89
2018-07-20T00:09:35.907Z,21.22
2018-07-20T00:12:01.949Z,21.35
2018-07-20T00:14:28.003Z,21.25
2018-07-20T00:16:54.001Z,21.30
2018-07-20T00:19:20.019Z,20.89
2018-07-20T00:21:46.964Z,20.80
2018-07-20T00:24:12.944Z,20.79
2018-07-20T00:26:39.021Z,20.98
2018-07-20T00:29:07.143Z,21.14
2018-07-20T00:31:33.218Z,20.55
2018-07-20T00:34:00.165Z,20.40
2018-07-20T00:36:26.203Z,20.64
2018-07-20T00:38:53.182Z,20.47
2018-07-20T00:41:19.256Z,19.95
2018-07-20T00:43:45.270Z,20.32
2018-07-20T00:46:11.271Z,20.05
2018-07-20T00:48:37.269Z,20.22
2018-07-20T00:51:03.313Z,19.91
2018-07-20T00:53:29.333Z,20.04
2018-07-20T00:55:55.398Z,20.34
2018-07-20T00:58:21.431Z,19.69
2018-07-20T01:00:48.584Z,20.02
2018-07-20T01:03:15.829Z,20.04
2018-07-20T01:05:41.842Z,19.97
2018-07-20T01:08:07.924Z,20.25
2018-07-20T01:10:33.963Z,19.94
2018-07-20T01:13:00.033Z,20.07
2018-07-20T01:15:26.064Z,19.97
2018-07-20T01:17:52.063Z,19.74
2018-07-20T01:20:18.086Z,19.93
2018-07-20T01:22:44.451Z,20.07
2018-07-20T01:25:10.497Z,20.61
2018-07-20T01:27:36.468Z,19.88
2018-07-20T01:30:02.442Z,19.87
2018-07-20T01:32:28.487Z,19.95
2018-07-20T01:34:54.457Z,19.79
2018-07-20T01:37:20.474Z,19.62
2018-07-20T01:39:46.470Z,19.25
2018-07-20T01:42:12.444Z,19.81
2018-07-20T01:44:38.477Z,20.06
2018-07-20T01:47:04.435Z,20.25
2018-07-20T01:49:30.480Z,20.41
2018-07-20T01:51:56.459Z,20.06
2018-07-20T01:54:22.468Z,20.31
2018-07-20T01:56:48.845Z,20.12
2018-07-20T01:59:15.005Z,19.53
2018-07-20T02:01:41.047Z,19.23
2018-07-20T02:04:07.227Z,19.18
2018-07-20T02:06:33.273Z,19.41
2018-07-20T02:08:59.326Z,19.25
2018-07-20T02:11:25.356Z,19.11
2018-07-20T02:13:51.429Z,19.27
2018-07-20T02:16:17.488Z,19.10
2018-07-20T02:18:43.625Z,19.18
2018-07-20T02:21:09.665Z,19.25
2018-07-20T02:23:38.613Z,19.24
2018-07-20T02:26:04.657Z,19.77
2018-07-20T02:28:30.776Z,19.48
2018-07-20T02:30:56.782Z,19.13
2018-07-20T02:33:22.872Z,19.16
2018-07-20T02:35:48.926Z,19.36
2018-07-20T02:38:15.018Z,19.69
2018-07-20T02:40:41.837Z,19.38
2018-07-20T02:43:07.848Z,19.63
2018-07-20T02:45:34.590Z,19.55
2018-07-20T02:48:00.679Z,19.48
2018-07-20T02:50:26.809Z,19.07
2018-07-20T02:52:52.980Z,19.34
2018-07-20T02:55:20.255Z,19.15
2018-07-20T02:57:46.325Z,19.09
2018-07-20T03:00:12.409Z,19.38
2018-07-20T03:02:38.488Z,19.67
2018-07-20T03:05:04.520Z,19.63
2018-07-20T03:07:30.523Z,19.61
2018-07-20T03:09:56.670Z,19.52
2018-07-20T03:12:22.717Z,19.17
2018-07-20T03:14:48.800Z,18.59
2018-07-20T03:17:14.826Z,18.71
2018-07-20T03:19:40.954Z,18.54
2018-07-20T03:22:07.024Z,18.72
2018-07-20T03:24:33.108Z,18.80
2018-07-20T03:26:59.263Z,18.53
2018-07-20T03:29:25.340Z,18.78
2018-07-20T03:31:52.322Z,18.56
2018-07-20T03:34:19.717Z,18.73
2018-07-20T03:36:46.710Z,18.25
2018-07-20T03:39:12.852Z,18.63
2018-07-20T03:41:38.999Z,18.65
2018-07-20T03:44:06.180Z,18.47
2018-07-20T03:46:32.289Z,18.49
2018-07-20T03:48:58.360Z,18.26
2018-07-20T03:51:24.516Z,18.24
2018-07-20T03:53:51.118Z,18.08
2018-07-20T03:56:18.063Z,18.10
2018-07-20T03:58:44.306Z,18.28
2018-07-20T04:01:10.436Z,18.61
2018-07-20T04:03:37.449Z,18.29
2018-07-20T04:06:03.568Z,18.28
2018-07-20T04:08:30.840Z,18.36
2018-07-20T04:10:56.947Z,18.11
2018-07-20T04:13:23.011Z,18.31
2018-07-20T04:15:49.088Z,18.40
2018-07-20T04:18:15.224Z,18.24
2018-07-20T04:20:41.365Z,18.49
2018-07-20T04:23:07.545Z,18.84
2018-07-20T04:25:33.567Z,18.49
2018-07-20T04:27:59.628Z,19.07
2018-07-20T04:30:25.830Z,19.56
2018-07-20T04:32:51.999Z,18.83
2018-07-20T04:35:18.101Z,19.26
2018-07-20T04:37:44.878Z,19.17
2018-07-20T04:40:10.955Z,19.17
2018-07-20T04:42:37.084Z,19.61
2018-07-20T04:45:03.128Z,19.65
2018-07-20T04:47:29.196Z,20.26
2018-07-20T04:49:55.872Z,20.39
2018-07-20T04:52:21.971Z,20.49
2018-07-20T04:54:51.869Z,20.51
2018-07-20T04:57:18.004Z,20.61
2018-07-20T04:59:44.094Z,20.68
2018-07-20T05:02:10.231Z,20.53
2018-07-20T05:04:36.352Z,20.62
2018-07-20T05:07:02.489Z,21.04
2018-07-20T05:09:28.560Z,21.39
2018-07-20T05:11:54.595Z,21.38
2018-07-20T05:14:21.543Z,21.45
2018-07-20T05:16:47.641Z,21.79
2018-07-20T05:19:13.763Z,21.19
2018-07-20T05:21:39.868Z,21.59
2018-07-20T05:24:05.956Z,21.82
2018-07-20T05:26:32.568Z,22.40
2018-07-20T05:28:58.681Z,22.58
2018-07-20T05:31:25.539Z,22.65
2018-07-20T05:33:52.629Z,22.36
2018-07-20T05:36:18.752Z,22.50
2018-07-20T05:38:44.862Z,22.98
2018-07-20T05:41:10.938Z,23.09
2018-07-20T05:43:39.886Z,22.87
2018-07-20T05:46:06.796Z,22.58
2018-07-20T05:48:32.770Z,22.64
2018-07-20T05:50:58.879Z,23.53
2018-07-20T05:53:24.930Z,24.07
2018-07-20T05:55:50.854Z,24.42
2018-07-20T05:58:16.941Z,23.37
2018-07-20T06:00:43.271Z,23.96
2018-07-20T06:03:09.241Z,24.38
2018-07-20T06:05:35.435Z,24.84
2018-07-20T06:08:01.508Z,25.22
2018-07-20T06:10:27.644Z,25.49
2018-07-20T06:12:53.974Z,25.66
2018-07-20T06:15:20.120Z,25.81
2018-07-20T06:17:46.143Z,25.97
2018-07-20T06:20:12.125Z,26.09
2018-07-20T06:22:38.137Z,26.09
2018-07-20T06:25:04.116Z,26.12
2018-07-20T06:27:30.230Z,26.56
2018-07-20T06:29:56.309Z,26.74
2018-07-20T06:32:22.880Z,26.70
2018-07-20T06:34:48.870Z,26.68
2018-07-20T06:37:15.943Z,26.54
2018-07-20T06:39:41.981Z,27.00
2018-07-20T06:42:09.065Z,26.90
2018-07-20T06:44:35.052Z,27.40
2018-07-20T06:47:01.032Z,27.61
2018-07-20T06:49:27.086Z,27.78
2018-07-20T06:51:53.067Z,27.66
2018-07-20T06:54:19.129Z,27.88
2018-07-20T06:56:45.169Z,28.12
2018-07-20T06:59:11.202Z,27.75
2018-07-20T07:01:37.228Z,28.01
2018-07-20T07:04:03.258Z,28.36
2018-07-20T07:06:29.273Z,28.31
2018-07-20T07:08:55.259Z,28.70
2018-07-20T07:11:21.271Z,28.25
2018-07-20T07:13:47.344Z,28.51
2018-07-20T07:16:13.299Z,29.02
2018-07-20T07:18:39.471Z,29.11
2018-07-20T07:21:05.590Z,28.84
2018-07-20T07:23:31.635Z,29.30
2018-07-20T07:25:57.660Z,29.48
2018-07-20T07:28:23.620Z,29.30
2018-07-20T07:30:49.598Z,29.67
2018-07-20T07:33:15.672Z,29.74
2018-07-20T07:35:41.665Z,29.50
2018-07-20T07:38:07.649Z,29.70
2018-07-20T07:40:33.705Z,29.74
2018-07-20T07:42:59.678Z,29.76
2018-07-20T07:45:25.625Z,29.94
2018-07-20T07:47:51.622Z,29.96
2018-07-20T07:50:17.598Z,30.03
2018-07-20T07:52:43.613Z,29.93
2018-07-20T07:55:09.685Z,29.64
2018-07-20T07:57:35.716Z,29.67
2018-07-20T08:00:02.964Z,29.72
2018-07-20T08:02:29.618Z,29.66
2018-07-20T08:04:55.696Z,29.41
2018-07-20T08:07:21.766Z,29.39
2018-07-20T08:09:47.813Z,29.06
2018-07-20T08:12:13.799Z,28.81
2018-07-20T08:14:39.892Z,29.19
2018-07-20T08:17:09.708Z,28.78
2018-07-20T08:19:35.780Z,28.60
2018-07-20T08:22:01.951Z,28.40
2018-07-20T08:24:27.944Z,28.43
2018-07-20T08:26:54.032Z,28.44
2018-07-20T08:29:20.159Z,28.33
2018-07-20T08:31:46.159Z,28.24
2018-07-20T08:34:12.225Z,27.98
2018-07-20T08:36:38.243Z,28.25
2018-07-20T08:39:04.251Z,28.22
2018-07-20T08:41:30.250Z,27.81
2018-07-20T08:43:56.329Z,27.53
2018-07-20T08:46:22.337Z,27.62
2018-07-20T08:48:48.349Z,27.38
2018-07-20T08:51:14.357Z,27.26
2018-07-20T08:53:40.439Z,27.38
2018-07-20T08:56:06.617Z,27.26
2018-07-20T08:58:32.688Z,27.24
2018-07-20T09:00:59.656Z,27.19
2018-07-20T09:03:26.657Z,26.95
2018-07-20T09:05:52.774Z,26.69
2018-07-20T09:08:18.865Z,26.67
2018-07-20T09:10:44.876Z,26.67
2018-07-20T09:13:11.544Z,26.73
2018-07-20T09:15:37.604Z,26.59
2018-07-20T09:18:03.647Z,26.46
2018-07-20T09:20:29.764Z,26.35
2018-07-20T09:22:55.842Z,25.95
2018-07-20T09:25:21.944Z,26.01
2018-07-20T09:27:48.050Z,26.16
2018-07-20T09:30:14.295Z,26.27
2018-07-20T09:32:40.328Z,26.24
2018-07-20T09:35:06.473Z,26.15
2018-07-20T09:37:32.521Z,26.30
2018-07-20T09:39:58.544Z,26.23
2018-07-20T09:42:24.566Z,26.17
2018-07-20T09:44:50.587Z,26.15
2018-07-20T09:47:16.919Z,26.16
2018-07-20T09:49:43.885Z,26.22
2018-07-20T09:52:10.030Z,26.12
2018-07-20T09:54:36.053Z,25.86
2018-07-20T09:57:02.077Z,25.95
2018-07-20T09:59:28.104Z,25.87
2018-07-20T10:01:54.076Z,25.98
2018-07-20T10:04:20.120Z,25.99
2018-07-20T10:06:46.163Z,26.12
2018-07-20T10:09:12.137Z,25.98
2018-07-20T10:11:38.123Z,26.08
2018-07-20T10:14:04.194Z,26.18
2018-07-20T10:16:30.347Z,26.21
2018-07-20T10:18:56.370Z,26.24
2018-07-20T10:21:23.559Z,26.10
2018-07-20T10:23:49.508Z,25.99
2018-07-20T10:26:15.537Z,26.13
2018-07-20T10:28:41.535Z,26.00
2018-07-20T10:31:07.514Z,26.03
2018-07-20T10:33:33.450Z,25.95
2018-07-20T10:35:59.423Z,26.04
2018-07-20T10:38:25.413Z,26.07
2018-07-20T10:40:51.404Z,26.00
2018-07-20T10:43:17.433Z,26.00
2018-07-20T10:45:43.440Z,25.94
2018-07-20T10:48:09.404Z,26.03
2018-07-20T10:50:35.544Z,25.96
2018-07-20T10:53:01.507Z,26.07
2018-07-20T10:55:27.510Z,25.97
2018-07-20T10:57:53.519Z,26.04
2018-07-20T11:00:19.493Z,26.08
2018-07-20T11:02:45.473Z,26.10
2018-07-20T11:05:11.527Z,25.98
2018-07-20T11:07:37.519Z,26.09
2018-07-20T11:10:03.508Z,26.13
2018-07-20T11:12:29.548Z,26.02
2018-07-20T11:14:55.571Z,26.10
2018-07-20T11:17:21.555Z,26.19
2018-07-20T11:19:47.551Z,26.10
2018-07-20T11:22:13.549Z,26.21
2018-07-20T11:24:39.517Z,26.22
2018-07-20T11:27:05.476Z,26.22
2018-07-20T11:29:31.502Z,26.26
2018-07-20T11:31:57.483Z,26.22
2018-07-20T11:34:23.456Z,26.15
2018-07-20T11:36:49.433Z,26.20
2018-07-20T11:39:16.300Z,26.12
2018-07-20T11:41:42.300Z,26.12
2018-07-20T11:44:08.258Z,26.08
2018-07-20T11:46:34.257Z,26.12
2018-07-20T11:49:00.241Z,26.12
2018-07-20T11:51:26.211Z,26.17
2018-07-20T11:53:52.179Z,26.14
2018-07-20T11:56:18.158Z,26.17
2018-07-20T11:58:44.385Z,26.14
2018-07-20T12:01:10.408Z,26.24
2018-07-20T12:03:36.370Z,26.19
2018-07-20T12:06:02.355Z,26.11
2018-07-20T12:08:28.325Z,26.09
2018-07-20T12:10:54.300Z,25.96
2018-07-20T12:13:20.346Z,26.02
2018-07-20T12:15:46.344Z,26.16
2018-07-20T12:18:12.355Z,26.00
2018-07-20T12:20:38.753Z,26.17
2018-07-20T12:23:04.721Z,26.17
2018-07-20T12:25:30.712Z,26.27
2018-07-20T12:27:56.673Z,26.12
2018-07-20T12:30:22.639Z,26.14
2018-07-20T12:32:48.593Z,26.02
2018-07-20T12:35:14.520Z,25.99
2018-07-20T12:37:40.484Z,26.08
2018-07-20T12:40:06.411Z,26.18
2018-07-20T12:42:32.393Z,26.16
2018-07-20T12:44:58.344Z,26.02
2018-07-20T12:47:24.285Z,26.08
2018-07-20T12:49:50.226Z,26.19
2018-07-20T12:52:16.176Z,26.14
2018-07-20T12:54:42.955Z,26.09
2018-07-20T12:57:08.942Z,26.07
2018-07-20T12:59:34.972Z,26.14
2018-07-20T13:02:00.993Z,26.19
2018-07-20T13:04:27.001Z,26.23
2018-07-20T13:06:52.975Z,26.11
2018-07-20T13:09:18.996Z,26.05
2018-07-20T13:11:45.092Z,26.11
2018-07-20T13:14:11.034Z,26.16
2018-07-20T13:16:36.969Z,26.19
2018-07-20T13:19:03.590Z,26.21
2018-07-20T13:21:29.621Z,26.29
2018-07-20T13:23:55.636Z,26.25
2018-07-20T13:26:21.650Z,26.15
2018-07-20T13:28:47.610Z,26.30
2018-07-20T13:31:13.630Z,26.30
2018-07-20T13:33:39.616Z,26.29
2018-07-20T13:36:05.613Z,26.22
2018-07-20T13:38:31.662Z,26.28
2018-07-20T13:40:57.634Z,26.38
2018-07-20T13:43:23.589Z,26.30
2018-07-20T13:45:49.552Z,26.26
2018-07-20T13:48:15.527Z,26.23
2018-07-20T13:50:41.496Z,26.25
2018-07-20T13:53:07.521Z,26.25
2018-07-20T13:55:33.544Z,26.20
2018-07-20T13:57:59.543Z,26.26
2018-07-20T14:00:25.485Z,26.22
2018-07-20T14:02:51.653Z,26.28
2018-07-20T14:05:17.670Z,26.26
2018-07-20T14:07:43.712Z,26.23
2018-07-20T14:10:09.719Z,26.23
2018-07-20T14:12:35.738Z,26.22
2018-07-20T14:15:01.777Z,26.20
2018-07-20T14:17:27.785Z,26.19
2018-07-20T14:19:55.205Z,26.33
2018-07-20T14:22:21.345Z,26.45
2018-07-20T14:24:47.346Z,26.33
2018-07-20T14:27:13.372Z,26.43
2018-07-20T14:29:39.402Z,26.46
2018-07-20T14:32:05.415Z,26.38
2018-07-20T14:34:31.423Z,26.38
2018-07-20T14:36:57.445Z,26.40
2018-07-20T14:39:23.425Z,26.33
2018-07-20T14:41:49.522Z,26.33
2018-07-20T14:44:15.576Z,26.29
2018-07-20T14:46:41.576Z,26.35
2018-07-20T14:49:07.621Z,26.34
2018-07-20T14:51:33.637Z,26.28
2018-07-20T14:53:59.713Z,26.17
2018-07-20T14:56:25.777Z,26.28
2018-07-20T14:58:51.900Z,26.32
2018-07-20T15:01:17.912Z,26.30
2018-07-20T15:03:44.065Z,26.33
2018-07-20T15:06:10.279Z,26.24
2018-07-20T15:08:37.061Z,26.23
2018-07-20T15:11:03.110Z,26.27
2018-07-20T15:13:29.192Z,26.32
2018-07-20T15:15:55.303Z,26.32
2018-07-20T15:18:22.125Z,26.21
2018-07-20T15:20:52.041Z,26.25
2018-07-20T15:23:19.084Z,26.23
2018-07-20T15:25:46.129Z,26.29
2018-07-20T15:28:12.233Z,26.31
2018-07-20T15:30:38.272Z,26.30
2018-07-20T15:33:04.666Z,26.27
2018-07-20T15:35:31.595Z,26.30
2018-07-20T15:37:57.677Z,26.31
2018-07-20T15:40:24.554Z,26.27
2018-07-20T15:42:50.699Z,26.21
2018-07-20T15:45:16.771Z,26.31
2018-07-20T15:47:44.772Z,26.22
2018-07-20T15:50:10.816Z,26.23
2018-07-20T15:55:03.253Z,26.42
2018-07-20T15:57:29.385Z,26.30
2018-07-20T15:59:55.470Z,26.32
2018-07-20T16:02:21.504Z,26.32
2018-07-20T16:04:47.522Z,26.40
2018-07-20T16:07:14.387Z,26.38
2018-07-20T16:09:40.437Z,26.33
2018-07-20T16:12:06.546Z,26.32
2018-07-20T16:14:32.584Z,26.28
2018-07-20T16:16:58.730Z,26.26
2018-07-20T16:19:24.725Z,26.38
2018-07-20T16:21:50.758Z,26.31
2018-07-20T16:24:16.899Z,26.37
2018-07-20T16:26:43.002Z,26.42
2018-07-20T16:29:10.016Z,26.43
2018-07-20T16:31:36.021Z,26.39
2018-07-20T16:34:02.139Z,26.30
2018-07-20T16:36:28.159Z,26.25
2018-07-20T16:38:54.210Z,26.24
2018-07-20T16:41:20.359Z,26.27
2018-07-20T16:43:46.406Z,26.27
2018-07-20T16:46:12.670Z,26.28
2018-07-20T16:48:38.672Z,26.28
2018-07-20T16:51:04.679Z,26.26
2018-07-20T16:53:30.714Z,26.29
2018-07-20T16:55:56.747Z,26.28
2018-07-20T16:58:22.782Z,26.32
2018-07-20T17:00:48.694Z,26.34
2018-07-20T17:03:14.686Z,26.38
2018-07-20T17:05:41.667Z,26.33
2018-07-20T17:08:07.652Z,26.35
2018-07-20T17:10:34.381Z,26.37
2018-07-20T17:13:00.389Z,26.37
2018-07-20T17:15:26.402Z,26.41
2018-07-20T17:17:53.238Z,26.39
2018-07-20T17:20:19.208Z,26.39
2018-07-20T17:22:45.214Z,26.43
2018-07-20T17:25:11.209Z,26.46
2018-07-20T17:27:37.301Z,26.43
2018-07-20T17:30:03.356Z,26.44
2018-07-20T17:32:29.376Z,26.47
2018-07-20T17:34:56.218Z,26.50
2018-07-20T17:37:22.340Z,26.48
2018-07-20T17:39:48.873Z,26.48
2018-07-20T17:42:14.839Z,26.52
2018-07-20T17:44:40.776Z,26.47
2018-07-20T17:47:06.734Z,26.43
2018-07-20T17:49:32.770Z,26.42
2018-07-20T17:51:58.742Z,26.42
2018-07-20T17:54:24.748Z,26.38
2018-07-20T17:56:50.729Z,26.37
2018-07-20T17:59:16.817Z,26.37
2018-07-20T18:01:42.814Z,26.36
2018-07-20T18:04:08.784Z,26.34
2018-07-20T18:06:34.789Z,26.33
2018-07-20T18:09:00.785Z,26.35
2018-07-20T18:11:26.757Z,26.34
2018-07-20T18:16:25.053Z,26.33
2018-07-20T18:18:51.071Z,26.32
2018-07-20T18:21:17.058Z,26.28
2018-07-20T18:23:43.033Z,26.27
2018-07-20T18:26:09.012Z,26.24
2018-07-20T18:28:35.126Z,26.22
2018-07-20T18:31:02.217Z,26.21
2018-07-20T18:33:28.429Z,26.17
2018-07-20T18:35:54.413Z,26.18
2018-07-20T18:38:20.372Z,26.17
2018-07-20T18:40:46.497Z,26.16
2018-07-20T18:43:12.506Z,26.12
2018-07-20T18:45:38.861Z,26.11
2018-07-20T18:48:04.982Z,26.09
2018-07-20T18:50:31.867Z,26.08
2018-07-20T18:52:57.901Z,26.04
2018-07-20T18:55:24.048Z,26.05
2018-07-20T18:57:50.150Z,26.02
2018-07-20T19:00:16.151Z,26.02
2018-07-20T19:02:42.143Z,25.99
2018-07-20T19:05:08.175Z,25.98
2018-07-20T19:07:34.148Z,25.98
2018-07-20T19:10:00.139Z,25.95
2018-07-20T19:12:26.118Z,25.93
2018-07-20T19:14:52.085Z,25.92
2018-07-20T19:17:18.088Z,25.86
2018-07-20T19:19:44.064Z,25.87
2018-07-20T19:22:10.053Z,25.80
2018-07-20T19:24:36.013Z,25.81
2018-07-20T19:27:02.044Z,25.76
2018-07-20T19:29:27.977Z,25.69
2018-07-20T19:31:53.941Z,25.68
2018-07-20T19:34:19.931Z,25.61
2018-07-20T19:41:52.273Z,25.31
2018-07-20T19:44:18.236Z,25.17
2018-07-20T19:46:44.209Z,25.10
2018-07-20T19:49:10.170Z,25.08
2018-07-20T19:51:36.268Z,25.05
2018-07-20T19:54:02.276Z,24.90
2018-07-20T19:56:28.216Z,24.81
2018-07-20T19:58:54.302Z,24.74
2018-07-20T20:01:20.213Z,24.47
2018-07-20T20:03:46.185Z,24.46
2018-07-20T20:06:12.304Z,24.49
2018-07-20T20:08:38.270Z,24.49
2018-07-20T20:11:04.274Z,24.33
2018-07-20T20:13:30.279Z,24.25
2018-07-20T20:15:56.272Z,24.25
2018-07-20T20:18:22.237Z,24.32
2018-07-20T20:20:48.216Z,24.05
2018-07-20T20:28:21.362Z,23.98
2018-07-20T20:30:47.313Z,23.87
2018-07-20T20:33:13.253Z,23.84
2018-07-20T20:35:39.213Z,23.73
2018-07-20T20:38:05.178Z,23.70
2018-07-20T20:40:31.144Z,23.83
2018-07-20T20:42:57.128Z,23.68
2018-07-20T20:45:23.100Z,23.79
2018-07-20T20:47:49.052Z,23.52
2018-07-20T20:50:15.033Z,23.62
2018-07-20T20:52:41.002Z,23.73
2018-07-20T20:55:06.981Z,23.44
2018-07-20T20:57:32.975Z,23.28
2018-07-20T20:59:58.970Z,23.37
2018-07-20T21:02:24.913Z,23.29
2018-07-20T21:04:50.863Z,23.28
2018-07-20T21:07:16.820Z,22.89
2018-07-20T21:09:42.776Z,23.07
2018-07-20T21:12:08.854Z,23.23
2018-07-20T21:14:34.739Z,23.19
2018-07-20T21:17:00.681Z,23.37
2018-07-20T21:19:26.663Z,23.28
2018-07-20T21:21:52.604Z,23.19
2018-07-20T21:24:18.557Z,23.35
2018-07-20T21:26:44.508Z,23.28
2018-07-20T21:29:10.457Z,22.89
2018-07-20T21:31:36.400Z,22.92
2018-07-20T21:34:02.374Z,22.90
2018-07-20T21:36:28.356Z,22.88
2018-07-20T21:38:54.316Z,22.76
2018-07-20T21:41:20.251Z,22.64
2018-07-20T21:43:46.214Z,22.63
2018-07-20T21:46:12.185Z,22.48
2018-07-20T21:48:38.145Z,22.41
2018-07-20T21:51:04.106Z,22.44
2018-07-20T21:53:30.053Z,22.74
2018-07-20T21:55:56.014Z,22.44
2018-07-20T21:58:21.981Z,22.19
2018-07-20T22:00:47.949Z,22.68
2018-07-20T22:03:13.900Z,22.33
2018-07-20T22:05:39.866Z,22.57
2018-07-20T22:08:05.811Z,22.64
2018-07-20T22:10:31.808Z,22.29
2018-07-20T22:12:57.772Z,22.10
2018-07-20T22:15:23.751Z,22.15
2018-07-20T22:17:49.721Z,22.56
2018-07-20T22:20:15.678Z,22.72
2018-07-20T22:22:41.639Z,22.42
2018-07-20T22:25:07.600Z,22.29
2018-07-20T22:27:33.577Z,22.62
2018-07-20T22:29:59.592Z,22.15
2018-07-20T22:32:25.567Z,21.78
2018-07-20T22:34:51.504Z,21.90
2018-07-20T22:37:17.464Z,21.72
2018-07-20T22:39:43.422Z,21.63
2018-07-20T22:42:09.369Z,21.55
2018-07-20T22:44:35.382Z,21.75
2018-07-20T22:47:01.351Z,21.71
2018-07-20T22:49:27.296Z,21.81
2018-07-20T22:51:53.258Z,21.75
2018-07-20T22:54:19.193Z,21.57
2018-07-20T22:56:45.177Z,21.65
2018-07-20T22:59:11.136Z,21.51
2018-07-20T23:01:37.094Z,21.63
2018-07-20T23:04:03.027Z,21.55
2018-07-20T23:06:28.983Z,21.56
2018-07-20T23:08:54.943Z,21.20
2018-07-20T23:11:20.891Z,21.17
2018-07-20T23:13:46.858Z,21.24
2018-07-20T23:16:12.832Z,21.53
2018-07-20T23:18:38.796Z,21.82
2018-07-20T23:21:04.857Z,21.58
2018-07-20T23:23:30.791Z,21.70
2018-07-20T23:25:56.777Z,21.79
2018-07-20T23:28:22.763Z,21.94
2018-07-20T23:30:48.721Z,21.55
2018-07-20T23:33:14.724Z,21.42
2018-07-20T23:35:40.691Z,21.08
2018-07-20T23:38:06.653Z,21.38
2018-07-20T23:40:32.631Z,21.19
2018-07-20T23:42:58.647Z,21.02
2018-07-20T23:45:24.598Z,21.25
2018-07-20T23:47:50.548Z,21.28
2018-07-20T23:50:16.485Z,21.36
2018-07-20T23:52:42.477Z,21.08
2018-07-20T23:55:08.421Z,20.75
2018-07-20T23:57:34.352Z,20.79
